Time;durP1;ratioP1;P1;durP2;ratioP2;P2;SDS_P1;SDS_P2;PMS_P1;PMS_P2;Temp;Humidity;BMP_temperature;BMP_pressure;BME280_temperature;BME280_humidity;BME280_pressure;Samples;Min_cycle;Max_cycle;Signal;HPM_P1;HPM_P2
2024/04/11 00:06:34;;;;;;;3.40;1.00;;;16.90;73.10;;;;;;5095405;27;20038;-72
2024/04/11 00:09:00;;;;;;;6.10;1.10;;;16.90;72.80;;;;;;5205468;27;20011;-73
2024/04/11 00:11:26;;;;;;;3.83;0.80;;;16.90;72.00;;;;;;5309594;26;19998;-75
2024/04/11 00:13:52;;;;;;;3.38;1.05;;;17.00;72.40;;;;;;5405014;26;19994;-75
2024/04/11 00:16:18;;;;;;;3.65;1.10;;;16.90;72.10;;;;;;5454448;26;20003;-76
2024/04/11 00:18:44;;;;;;;3.75;1.02;;;16.90;72.50;;;;;;5454967;26;20010;-75
2024/04/11 00:21:10;;;;;;;3.75;1.10;;;16.90;72.60;;;;;;5453968;26;20010;-74
2024/04/11 00:23:35;;;;;;;5.10;1.25;;;16.90;72.30;;;;;;5453978;26;19995;-75
2024/04/11 00:26:02;;;;;;;4.72;1.20;;;16.80;72.50;;;;;;5454384;26;20014;-76
2024/04/11 00:28:28;;;;;;;3.97;0.90;;;16.90;72.40;;;;;;5454468;26;20006;-75
2024/04/11 00:30:54;;;;;;;2.55;1.00;;;16.80;71.90;;;;;;5454689;26;20454;-75
2024/04/11 00:33:21;;;;;;;2.15;0.85;;;16.80;71.80;;;;;;5454835;26;19999;-76
2024/04/11 00:35:49;;;;;;;7.97;1.00;;;16.80;72.20;;;;;;5455040;26;20013;-75
2024/04/11 00:38:20;;;;;;;3.40;0.95;;;16.70;71.30;;;;;;5454441;26;19999;-75
2024/04/11 00:40:56;;;;;;;8.57;1.00;;;16.70;70.70;;;;;;5454396;26;20530;-76
2024/04/11 00:43:23;;;;;;;5.53;0.90;;;16.60;71.90;;;;;;5454136;26;20049;-75
2024/04/11 00:45:48;;;;;;;2.35;0.80;;;16.60;71.90;;;;;;5454283;26;19998;-76
2024/04/11 00:48:15;;;;;;;3.83;1.13;;;16.60;72.50;;;;;;5455035;26;19999;-76
2024/04/11 00:50:42;;;;;;;5.78;1.02;;;16.60;72.90;;;;;;5464880;26;19998;-76
2024/04/11 00:53:11;;;;;;;2.70;0.82;;;16.60;71.60;;;;;;5490625;26;20010;-75
2024/04/11 00:55:37;;;;;;;5.53;1.08;;;16.50;71.40;;;;;;5490657;26;20010;-75
2024/04/11 00:58:03;;;;;;;3.50;1.02;;;16.50;72.00;;;;;;5456301;26;20129;-76
2024/04/11 01:00:29;;;;;;;8.70;1.02;;;16.50;73.50;;;;;;5486912;26;20002;-75
2024/04/11 01:02:56;;;;;;;4.10;1.30;;;16.50;73.50;;;;;;5487080;26;20001;-75
2024/04/11 01:05:22;;;;;;;3.17;0.90;;;16.40;73.30;;;;;;5489360;26;20002;-75
2024/04/11 01:07:54;;;;;;;4.47;1.10;;;16.40;73.30;;;;;;5490849;26;20002;-76
2024/04/11 01:10:21;;;;;;;;;;;16.40;72.90;;;;;;5491403;26;19999;-75
2024/04/11 01:12:48;;;;;;;3.33;0.95;;;16.40;73.90;;;;;;5490415;26;20233;-75
2024/04/11 01:15:15;;;;;;;7.60;1.10;;;16.40;72.90;;;;;;5490441;26;20074;-75
2024/04/11 01:17:45;;;;;;;3.55;0.98;;;16.30;74.20;;;;;;5490356;26;20009;-71
2024/04/11 01:20:21;;;;;;;3.10;1.00;;;16.40;74.60;;;;;;5490082;26;20009;-74
2024/04/11 01:33:56;;;;;;;3.95;1.33;;;16.30;74.20;;;;;;5110305;27;20069;-76
2024/04/11 01:40:18;;;;;;;5.80;1.13;;;16.30;73.80;;;;;;5111738;28;19932;-73
2024/04/11 01:46:08;;;;;;;2.95;1.15;;;16.30;73.20;;;;;;5017698;28;20081;-72
2024/04/11 01:48:34;;;;;;;3.33;1.40;;;16.20;73.60;;;;;;5100169;27;20368;-73
2024/04/11 01:51:00;;;;;;;3.15;1.30;;;16.20;72.40;;;;;;5341420;26;20381;-71
2024/04/11 01:53:26;;;;;;;4.97;1.27;;;16.20;73.10;;;;;;5476148;26;20391;-72
2024/04/11 01:55:53;;;;;;;4.38;1.13;;;16.20;73.50;;;;;;5519088;26;20403;-70
2024/04/11 01:58:22;;;;;;;5.53;1.63;;;16.20;73.40;;;;;;5489869;26;20005;-73
2024/04/11 02:00:48;;;;;;;2.35;1.10;;;16.10;72.30;;;;;;5457347;26;20359;-72
2024/04/11 02:03:14;;;;;;;4.00;1.30;;;16.10;73.30;;;;;;5489264;26;19994;-73
2024/04/11 02:05:43;;;;;;;8.25;1.20;;;16.10;73.60;;;;;;5489642;26;20004;-73
2024/04/11 02:08:09;;;;;;;5.25;1.25;;;16.10;74.10;;;;;;5489132;26;20009;-71
2024/04/11 02:10:38;;;;;;;2.85;0.90;;;16.00;73.90;;;;;;5489467;26;20074;-73
2024/04/11 02:13:04;;;;;;;5.35;1.30;;;16.00;74.50;;;;;;5489164;26;20514;-71
2024/04/11 02:15:29;;;;;;;7.30;1.10;;;15.90;74.90;;;;;;5489796;26;19998;-70
2024/04/11 02:17:55;;;;;;;11.05;1.38;;;15.90;75.40;;;;;;5490178;26;19998;-70
2024/04/11 02:20:22;;;;;;;5.80;1.13;;;15.90;75.30;;;;;;5489728;26;20009;-70
2024/04/11 02:22:50;;;;;;;6.13;1.20;;;15.90;75.50;;;;;;5457361;26;20471;-70
2024/04/11 02:25:17;;;;;;;5.68;1.13;;;15.90;74.90;;;;;;5489555;26;20031;-71
2024/04/11 02:27:43;;;;;;;2.80;1.13;;;15.90;74.40;;;;;;5489367;26;20430;-75
2024/04/11 02:30:09;;;;;;;4.15;0.98;;;15.90;74.20;;;;;;5489345;26;19998;-70
2024/04/11 02:32:41;;;;;;;5.60;1.10;;;15.90;74.90;;;;;;5489091;26;20125;-70
2024/04/11 02:35:11;;;;;;;4.00;0.93;;;15.90;75.30;;;;;;5489036;26;20465;-71
2024/04/11 02:37:38;;;;;;;4.00;1.20;;;15.90;75.60;;;;;;5488609;26;20081;-70
2024/04/11 02:40:07;;;;;;;11.48;1.80;;;15.90;75.50;;;;;;5457311;26;20046;-70
2024/04/11 02:42:38;;;;;;;5.68;1.00;;;15.90;75.10;;;;;;5489069;26;20039;-72
2024/04/11 02:45:14;;;;;;;5.50;0.90;;;15.80;75.60;;;;;;5489984;26;19998;-70
2024/04/11 02:47:41;;;;;;;4.68;1.13;;;15.80;76.30;;;;;;5492375;26;20037;-70
2024/04/11 02:50:09;;;;;;;6.68;1.17;;;15.80;75.70;;;;;;5492834;26;20403;-70
2024/04/11 02:52:36;;;;;;;3.22;1.20;;;15.80;76.20;;;;;;5492997;26;20009;-70
2024/04/11 02:55:04;;;;;;;5.03;1.35;;;15.70;76.40;;;;;;5493036;26;20006;-70
2024/04/11 02:57:31;;;;;;;4.53;1.10;;;15.70;75.80;;;;;;5492608;26;20002;-70
2024/04/11 03:24:22;;;;;;;3.67;1.25;;;15.50;76.20;;;;;;5297784;26;20081;-73
2024/04/11 03:26:49;;;;;;;6.03;1.17;;;15.50;76.40;;;;;;5491647;26;20397;-71
2024/04/11 03:29:15;;;;;;;4.95;1.20;;;15.50;76.40;;;;;;5492194;26;20032;-70
2024/04/11 03:31:44;;;;;;;3.67;1.25;;;15.50;76.30;;;;;;5492237;26;20116;-74
2024/04/11 03:34:10;;;;;;;3.83;1.23;;;15.40;75.80;;;;;;5491823;26;20322;-70
2024/04/11 03:36:37;;;;;;;3.53;1.20;;;15.40;76.30;;;;;;5491559;26;20016;-73
2024/04/11 03:39:11;;;;;;;5.28;1.25;;;15.40;76.50;;;;;;5491545;26;20002;-72
2024/04/11 03:41:41;;;;;;;4.82;1.02;;;15.40;76.80;;;;;;5491336;26;20013;-72
2024/04/11 03:44:08;;;;;;;5.13;0.90;;;15.40;77.00;;;;;;5491708;26;20006;-71
2024/04/11 03:46:36;;;;;;;4.43;1.17;;;15.40;76.20;;;;;;5491713;26;19998;-71
2024/04/11 03:49:04;;;;;;;8.35;1.50;;;15.40;76.50;;;;;;5491484;26;19998;-73
2024/04/11 03:51:33;;;;;;;2.08;0.90;;;15.40;76.40;;;;;;5491230;26;20094;-71
2024/04/11 03:54:00;;;;;;;3.35;1.23;;;15.40;76.40;;;;;;5491755;26;20010;-71
2024/04/11 03:56:30;;;;;;;4.18;1.13;;;15.40;75.60;;;;;;5490590;26;20009;-70
2024/04/11 03:58:57;;;;;;;3.80;0.95;;;15.30;76.20;;;;;;5491274;26;19998;-74
2024/04/11 04:01:25;;;;;;;4.60;1.15;;;15.30;75.80;;;;;;5491199;26;20438;-71
2024/04/11 04:03:52;;;;;;;2.67;1.00;;;15.30;75.50;;;;;;5491155;26;20469;-70
2024/04/11 04:06:19;;;;;;;2.63;1.17;;;15.30;76.00;;;;;;5491799;26;20233;-76
2024/04/11 04:08:47;;;;;;;4.50;1.20;;;15.30;75.70;;;;;;5491176;26;20006;-77
2024/04/11 04:11:14;;;;;;;4.82;1.15;;;15.30;75.80;;;;;;5491100;26;20074;-74
2024/04/11 04:13:43;;;;;;;3.70;1.13;;;15.30;75.80;;;;;;5490803;26;20012;-76
2024/04/11 04:16:11;;;;;;;1.83;1.00;;;15.30;75.90;;;;;;5490839;26;19998;-76
2024/04/11 04:18:41;;;;;;;5.00;1.10;;;15.30;76.00;;;;;;5458501;26;20502;-76
2024/04/11 04:21:08;;;;;;;2.08;0.90;;;15.30;75.90;;;;;;5490243;26;19999;-76
2024/04/11 04:23:38;;;;;;;3.17;0.90;;;15.30;75.70;;;;;;5491011;26;20002;-76
2024/04/11 04:26:06;;;;;;;5.18;1.10;;;15.30;75.80;;;;;;5490948;26;20002;-70
2024/04/11 04:28:33;;;;;;;6.07;1.00;;;15.30;75.80;;;;;;5491306;26;20813;-70
2024/04/11 04:31:25;;;;;;;2.85;1.00;;;15.30;76.10;;;;;;5491275;26;19998;-69
2024/04/11 04:33:55;;;;;;;2.17;0.90;;;15.30;75.90;;;;;;5491457;26;20002;-69
2024/04/11 04:36:26;;;;;;;5.10;0.88;;;15.30;75.40;;;;;;5491070;26;19998;-69
2024/04/11 05:03:24;;;;;;;7.97;1.65;;;15.20;77.10;;;;;;5273874;26;20390;-75
2024/04/11 05:05:50;;;;;;;5.30;1.20;;;15.20;76.70;;;;;;5310314;26;20005;-76
2024/04/11 05:08:16;;;;;;;3.45;1.38;;;15.20;76.50;;;;;;5331371;26;20066;-69
2024/04/11 05:10:53;;;;;;;5.47;1.20;;;15.20;76.60;;;;;;5454011;26;20010;-69
2024/04/11 05:13:26;;;;;;;7.25;1.30;;;15.20;76.90;;;;;;5453886;26;20003;-69
2024/04/11 05:15:58;;;;;;;2.90;1.02;;;15.20;76.80;;;;;;5453774;26;19998;-69
2024/04/11 05:18:24;;;;;;;3.00;1.15;;;15.20;76.80;;;;;;5453528;26;20002;-69
2024/04/11 05:20:52;;;;;;;3.70;1.05;;;15.20;77.00;;;;;;5453802;26;20013;-70
2024/04/11 05:23:19;;;;;;;2.45;0.90;;;15.20;77.00;;;;;;5454199;26;20340;-69
2024/04/11 05:25:46;;;;;;;5.97;1.45;;;15.20;77.50;;;;;;5453859;26;20010;-71
2024/04/11 05:28:12;;;;;;;3.03;1.08;;;15.20;77.90;;;;;;5453093;26;20450;-69
2024/04/11 05:30:43;;;;;;;1.92;1.10;;;15.20;78.50;;;;;;5453547;26;20014;-69
2024/04/11 05:33:09;;;;;;;6.03;1.30;;;15.20;78.40;;;;;;5453362;26;20587;-69
2024/04/11 05:35:39;;;;;;;5.43;1.10;;;15.20;78.30;;;;;;5453505;26;20003;-70
2024/04/11 05:38:10;;;;;;;6.78;1.20;;;15.20;78.40;;;;;;5453636;26;20304;-70
2024/04/11 05:40:36;;;;;;;3.00;1.38;;;15.20;78.30;;;;;;5453274;26;20009;-70
2024/04/11 05:43:06;;;;;;;6.53;1.10;;;15.20;78.80;;;;;;5488620;26;20014;-70
2024/04/11 05:45:33;;;;;;;4.00;1.27;;;15.20;78.70;;;;;;5489610;26;20002;-70
2024/04/11 05:48:03;;;;;;;1.70;0.98;;;15.20;78.90;;;;;;5489503;26;20002;-69
2024/04/11 05:50:29;;;;;;;3.90;1.40;;;15.20;78.10;;;;;;5489334;26;19998;-70
2024/04/11 05:52:55;;;;;;;3.28;1.33;;;15.20;78.60;;;;;;5489302;26;20013;-75
2024/04/11 05:55:21;;;;;;;4.50;1.10;;;15.20;78.80;;;;;;5489486;26;20081;-75
2024/04/11 05:57:46;;;;;;;4.78;0.95;;;15.30;78.60;;;;;;5489708;26;19998;-69
2024/04/11 06:00:13;;;;;;;8.43;1.20;;;15.30;78.40;;;;;;5487796;21;20002;-69
2024/04/11 06:02:40;;;;;;;5.75;1.13;;;15.30;79.40;;;;;;5382058;26;20082;-70
2024/04/11 06:05:06;;;;;;;5.15;1.40;;;15.30;80.20;;;;;;5381940;26;20093;-70
2024/04/11 06:07:32;;;;;;;2.65;1.42;;;15.30;80.10;;;;;;5380680;26;20403;-70
2024/04/11 06:17:41;;;;;;;6.57;1.45;;;15.50;78.00;;;;;;5228903;27;20420;-69
2024/04/11 06:26:40;;;;;;;6.35;1.65;;;15.70;77.20;;;;;;5308732;27;20013;-69
2024/04/11 06:29:07;;;;;;;3.53;1.33;;;15.70;76.30;;;;;;5308994;27;20002;-69
2024/04/11 06:35:20;;;;;;;10.85;1.42;;;15.80;77.00;;;;;;5340863;26;19997;-70
2024/04/11 06:37:50;;;;;;;4.28;1.20;;;15.80;77.10;;;;;;5346235;26;20338;-69
2024/04/11 06:40:16;;;;;;;8.05;1.67;;;15.90;77.30;;;;;;5345533;26;20009;-69
2024/04/11 06:42:46;;;;;;;7.75;1.60;;;15.90;77.30;;;;;;5345333;26;20036;-69
2024/04/11 06:45:16;;;;;;;12.45;1.60;;;15.90;77.20;;;;;;5345705;26;20005;-68
2024/04/11 06:47:45;;;;;;;3.63;1.05;;;16.00;77.30;;;;;;5315103;26;20404;-68
2024/04/11 06:50:11;;;;;;;9.85;1.50;;;16.00;77.30;;;;;;5345453;26;20090;-71
2024/04/11 06:52:37;;;;;;;6.78;1.17;;;16.20;75.70;;;;;;5366957;26;20529;-69
2024/04/11 06:55:05;;;;;;;3.95;1.38;;;16.20;75.80;;;;;;5380239;26;20004;-70
2024/04/11 06:57:37;;;;;;;5.85;1.63;;;16.30;75.20;;;;;;5380392;26;20000;-73
2024/04/11 07:00:14;;;;;;;2.28;1.30;;;16.30;75.00;;;;;;5379915;26;20370;-74
2024/04/11 07:02:44;;;;;;;4.10;1.30;;;16.30;75.30;;;;;;5379766;26;20009;-74
2024/04/11 07:05:13;;;;;;;5.47;1.08;;;16.40;75.20;;;;;;5347072;26;20455;-75
2024/04/11 07:07:59;;;;;;;6.85;1.05;;;16.40;75.20;;;;;;5349486;26;20452;-71
2024/04/11 07:10:25;;;;;;;5.30;1.10;;;16.50;75.30;;;;;;5380431;26;20562;-75
2024/04/11 07:12:59;;;;;;;3.47;1.10;;;16.50;74.60;;;;;;5380070;26;20008;-72
2024/04/11 07:15:29;;;;;;;1.50;0.90;;;16.50;74.50;;;;;;5380225;26;20394;-71
2024/04/11 07:17:58;;;;;;;3.65;1.20;;;16.50;75.50;;;;;;5379684;26;20070;-72
2024/04/11 07:20:25;;;;;;;2.72;1.30;;;16.60;74.70;;;;;;5379370;26;20000;-73
2024/04/11 07:22:55;;;;;;;2.20;0.95;;;16.60;74.50;;;;;;5380289;26;20440;-71
2024/04/11 07:25:30;;;;;;;5.47;1.00;;;16.70;75.20;;;;;;5380172;26;20015;-73
2024/04/11 07:27:56;;;;;;;11.15;1.40;;;16.70;75.30;;;;;;5379716;26;20008;-73
2024/04/11 07:30:24;;;;;;;3.70;1.20;;;16.80;74.00;;;;;;5378107;26;20105;-70
2024/04/11 07:32:52;;;;;;;4.70;1.15;;;16.80;74.30;;;;;;5380348;26;20051;-70
2024/04/11 07:35:19;;;;;;;1.95;1.00;;;16.80;74.80;;;;;;5383064;26;20456;-71
2024/04/11 07:37:45;;;;;;;3.00;1.10;;;16.90;74.60;;;;;;5381917;26;20001;-70
2024/04/11 07:40:32;;;;;;;8.35;1.80;;;17.00;74.40;;;;;;5383125;26;20075;-70
2024/04/11 07:43:09;;;;;;;8.88;1.23;;;17.00;73.70;;;;;;5384289;26;20420;-70
2024/04/11 07:45:40;;;;;;;2.03;1.10;;;17.00;73.90;;;;;;5384719;26;20351;-72
2024/04/11 07:48:16;;;;;;;4.43;1.10;;;17.10;74.90;;;;;;5384516;26;20344;-71
2024/04/11 08:05:28;;;;;;;3.85;1.75;;;17.30;71.70;;;;;;5219280;27;20060;-69
2024/04/11 08:08:04;;;;;;;6.85;1.30;;;17.40;73.50;;;;;;5207280;27;20000;-75
2024/04/11 08:10:35;;;;;;;5.38;1.70;;;17.40;73.30;;;;;;5203149;27;20016;-70
2024/04/11 08:13:01;;;;;;;3.42;1.35;;;17.40;73.10;;;;;;5236760;27;20014;-75
2024/04/11 08:15:28;;;;;;;3.50;1.40;;;17.50;73.40;;;;;;5241814;27;20007;-76
2024/04/11 08:17:54;;;;;;;4.40;1.45;;;17.50;73.20;;;;;;5260291;26;20010;-70
2024/04/11 08:20:20;;;;;;;7.93;1.23;;;17.50;72.90;;;;;;5382324;26;20402;-75
2024/04/11 08:22:47;;;;;;;3.33;1.20;;;17.60;72.80;;;;;;5383416;26;20004;-69
2024/04/11 08:25:13;;;;;;;4.63;1.30;;;17.60;72.10;;;;;;5380675;26;20015;-75
2024/04/11 08:27:40;;;;;;;3.58;1.38;;;17.70;70.20;;;;;;5382771;26;20000;-75
2024/04/11 08:30:06;;;;;;;5.13;1.30;;;17.70;71.70;;;;;;5382972;26;20351;-75
2024/04/11 08:32:35;;;;;;;5.05;1.20;;;17.80;72.10;;;;;;5382840;26;20007;-75
2024/04/11 08:35:02;;;;;;;6.63;1.20;;;17.80;72.00;;;;;;5377845;26;20095;-74
2024/04/11 08:37:28;;;;;;;3.80;1.35;;;17.80;71.50;;;;;;5379622;26;20521;-75
2024/04/11 08:39:55;;;;;;;5.50;1.30;;;17.90;71.40;;;;;;5382776;26;20012;-71
2024/04/11 08:42:21;;;;;;;6.90;1.50;;;18.00;71.30;;;;;;5381809;26;20511;-75
2024/04/11 08:44:57;;;;;;;4.60;1.15;;;18.00;71.50;;;;;;5381747;26;20011;-75
2024/04/11 08:47:24;;;;;;;6.18;1.30;;;18.00;71.90;;;;;;5378919;26;20448;-75
2024/04/11 08:49:50;;;;;;;5.43;1.55;;;18.10;71.70;;;;;;5376511;26;20525;-76
2024/04/11 08:52:17;;;;;;;4.40;1.27;;;18.10;70.50;;;;;;5377572;26;20008;-74
2024/04/11 08:54:45;;;;;;;4.63;1.52;;;18.20;70.30;;;;;;5378891;26;20019;-74
2024/04/11 08:57:12;;;;;;;5.68;1.48;;;18.20;71.10;;;;;;5381253;26;20028;-76
2024/04/11 08:59:38;;;;;;;2.85;1.55;;;18.30;72.40;;;;;;5382124;26;20019;-76
2024/04/11 09:02:06;;;;;;;3.67;1.45;;;18.30;72.00;;;;;;5381947;26;20005;-78
2024/04/11 09:04:32;;;;;;;2.90;1.25;;;18.30;72.00;;;;;;5382323;26;20015;-76
2024/04/11 09:07:00;;;;;;;3.42;1.42;;;18.40;71.90;;;;;;5381857;26;20000;-76
2024/04/11 09:09:27;;;;;;;5.50;1.23;;;18.40;72.10;;;;;;5381868;26;20039;-76
2024/04/11 09:11:53;;;;;;;4.47;1.50;;;18.50;71.10;;;;;;5382799;26;19996;-75
2024/04/11 09:14:20;;;;;;;4.20;1.33;;;18.50;71.20;;;;;;5382384;26;20456;-76
2024/04/11 09:17:00;;;;;;;4.50;1.80;;;18.50;70.50;;;;;;5351884;26;20004;-73
2024/04/11 09:19:26;;;;;;;7.57;1.40;;;18.60;70.90;;;;;;5380891;26;20008;-77
2024/04/11 09:21:53;;;;;;;6.60;1.55;;;18.60;70.20;;;;;;5381763;26;20011;-75
2024/04/11 09:24:23;;;;;;;5.70;1.40;;;18.60;70.30;;;;;;5382124;26;20018;-75
2024/04/11 09:26:49;;;;;;;6.20;2.00;;;18.70;70.50;;;;;;5381890;26;20040;-76
2024/04/11 09:33:24;;;;;;;6.25;2.00;;;18.70;70.30;;;;;;5273724;27;20417;-73
2024/04/11 09:49:23;;;;;;;8.23;1.80;;;18.90;71.60;;;;;;4985129;28;20023;-75
2024/04/11 09:51:51;;;;;;;6.85;1.90;;;19.00;71.90;;;;;;5022344;28;20379;-76
2024/04/11 09:54:18;;;;;;;5.75;1.67;;;19.10;71.10;;;;;;5088946;27;20003;-72
2024/04/11 09:56:46;;;;;;;5.00;1.45;;;19.10;70.10;;;;;;5323880;26;20344;-76
2024/04/11 09:59:12;;;;;;;5.03;1.58;;;19.10;70.50;;;;;;5381060;26;20007;-76
2024/04/11 10:01:38;;;;;;;7.90;1.50;;;19.20;70.90;;;;;;5381172;26;20012;-75
2024/04/11 10:04:35;;;;;;;4.78;1.58;;;19.20;71.00;;;;;;5381397;26;20000;-75
2024/04/11 10:06:58;;;;;;;2.75;1.33;;;19.30;71.20;;;;;;5380193;26;20008;-68
2024/04/11 10:09:29;;;;;;;5.85;1.42;;;19.30;72.20;;;;;;5381288;26;20403;-75
2024/04/11 10:12:03;;;;;;;6.30;1.40;;;19.40;70.90;;;;;;5381360;26;20452;-76
2024/04/11 10:14:32;;;;;;;5.88;1.30;;;19.40;70.00;;;;;;5379978;26;20023;-73
2024/04/11 10:17:02;;;;;;;6.22;1.90;;;19.50;70.40;;;;;;5378869;26;20330;-76
2024/04/11 10:19:33;;;;;;;4.82;1.40;;;19.50;70.50;;;;;;5378874;26;20607;-71
2024/04/11 10:22:06;;;;;;;6.90;1.45;;;19.60;69.70;;;;;;5379649;26;20044;-75
2024/04/11 10:24:37;;;;;;;6.28;1.70;;;19.60;68.90;;;;;;5376723;26;20016;-71
2024/04/11 10:27:11;;;;;;;9.05;2.05;;;19.60;70.30;;;;;;5380973;26;20008;-76
2024/04/11 10:29:45;;;;;;;5.75;2.00;;;19.70;71.20;;;;;;5378514;26;20024;-76
2024/04/11 10:32:22;;;;;;;2.50;1.60;;;19.70;69.50;;;;;;5379320;26;20448;-75
2024/04/11 10:34:57;;;;;;;5.47;1.58;;;19.70;69.40;;;;;;5380506;26;20350;-76
2024/04/11 10:37:24;;;;;;;7.72;1.85;;;19.70;68.90;;;;;;5380885;26;20016;-75
2024/04/11 10:39:54;;;;;;;4.30;1.38;;;19.80;69.20;;;;;;5379268;26;20447;-73
2024/04/11 10:42:27;;;;;;;4.28;1.70;;;19.70;69.20;;;;;;5377359;26;20004;-75
2024/04/11 10:44:53;;;;;;;9.20;1.65;;;19.70;69.70;;;;;;5379907;26;20008;-73
2024/04/11 10:47:21;;;;;;;4.88;1.50;;;19.80;69.60;;;;;;5378153;26;20054;-75
2024/04/11 10:49:49;;;;;;;4.30;2.00;;;19.90;69.60;;;;;;5380720;26;20004;-76
2024/04/11 10:52:16;;;;;;;5.28;1.88;;;20.00;69.50;;;;;;5349853;26;20429;-75
2024/04/11 10:54:48;;;;;;;7.30;1.73;;;20.00;68.20;;;;;;5380564;26;20000;-74
2024/04/11 10:57:15;;;;;;;6.20;1.92;;;20.00;67.60;;;;;;5380516;26;20077;-75
2024/04/11 10:59:51;;;;;;;16.83;1.73;;;20.00;69.30;;;;;;5379084;26;20321;-75
2024/04/11 11:02:25;;;;;;;6.50;1.70;;;20.10;69.90;;;;;;5378824;26;20086;-74
2024/04/11 11:04:54;;;;;;;4.32;1.80;;;20.10;66.60;;;;;;5380758;26;20004;-74
2024/04/11 11:07:29;;;;;;;5.40;2.00;;;20.20;67.90;;;;;;5382552;26;20019;-74
2024/04/11 11:11:05;;;;;;;13.07;2.85;;;20.30;70.90;;;;;;5384346;26;20482;-75
2024/04/11 11:17:39;;;;;;;6.90;1.70;;;20.40;68.00;;;;;;5243301;27;20014;-74
2024/04/11 11:24:01;;;;;;;5.43;1.83;;;20.40;67.90;;;;;;5311154;27;20392;-74
2024/04/11 11:29:58;;;;;;;5.45;1.55;;;20.60;67.50;;;;;;5191441;27;20062;-73
2024/04/11 11:36:12;;;;;;;5.82;1.92;;;20.70;68.50;;;;;;5204469;27;19994;-73
2024/04/11 11:38:38;;;;;;;6.93;2.17;;;20.70;69.40;;;;;;5310692;27;19998;-75
2024/04/11 11:41:04;;;;;;;5.95;1.85;;;20.80;68.20;;;;;;5363370;26;19996;-75
2024/04/11 11:43:30;;;;;;;5.50;1.90;;;20.80;70.20;;;;;;5383416;26;19993;-74
2024/04/11 11:48:45;;;;;;;6.60;1.90;;;21.00;68.10;;;;;;5381486;26;20073;-73
2024/04/11 11:51:11;;;;;;;5.13;2.10;;;21.10;68.20;;;;;;5379345;26;20008;-74
2024/04/11 11:53:45;;;;;;;13.07;1.88;;;21.20;66.70;;;;;;5381872;26;20016;-71
2024/04/11 11:56:12;;;;;;;9.25;2.30;;;21.20;66.90;;;;;;5383102;26;20370;-74
2024/04/11 11:58:43;;;;;;;6.30;2.25;;;21.30;65.80;;;;;;5383325;26;20361;-75
2024/04/11 12:01:28;;;;;;;7.45;2.35;;;21.30;66.80;;;;;;5382158;26;20000;-74
2024/04/11 12:03:55;;;;;;;5.90;2.10;;;21.40;67.30;;;;;;5382693;26;20356;-74
2024/04/11 12:06:22;;;;;;;6.32;1.90;;;21.40;66.60;;;;;;5383561;26;20008;-75
2024/04/11 12:08:48;;;;;;;8.52;1.92;;;21.40;66.60;;;;;;5382672;26;20382;-75
2024/04/11 12:11:16;;;;;;;6.95;2.65;;;21.50;68.20;;;;;;5381517;26;20016;-75
2024/04/11 12:13:42;;;;;;;6.00;1.92;;;21.50;68.00;;;;;;5381161;26;20004;-75
2024/04/11 12:16:13;;;;;;;8.60;2.10;;;21.60;67.20;;;;;;5382473;26;20069;-74
2024/04/11 12:18:40;;;;;;;9.25;2.60;;;21.60;68.00;;;;;;5381830;26;20012;-74
2024/04/11 12:21:13;;;;;;;8.20;2.30;;;21.70;66.90;;;;;;5383216;26;20040;-74
2024/04/11 12:23:43;;;;;;;6.05;2.25;;;21.70;65.60;;;;;;5382966;26;20012;-75
2024/04/11 12:26:12;;;;;;;6.88;1.95;;;21.80;64.50;;;;;;5382126;26;20467;-74
2024/04/11 12:28:38;;;;;;;6.80;2.08;;;21.80;66.00;;;;;;5381928;26;20074;-73
2024/04/11 12:31:07;;;;;;;4.25;2.10;;;21.90;64.50;;;;;;5381964;26;20020;-74
2024/04/11 12:33:34;;;;;;;5.18;2.33;;;21.90;64.80;;;;;;5382811;26;20000;-74
2024/04/11 12:36:37;;;;;;;10.45;2.38;;;21.90;63.40;;;;;;5381835;26;20369;-76
2024/04/11 12:39:03;;;;;;;10.32;2.30;;;21.90;64.40;;;;;;5380899;26;20085;-74
2024/04/11 12:41:29;;;;;;;8.05;2.42;;;22.00;63.40;;;;;;5381522;26;20036;-75
2024/04/11 12:43:57;;;;;;;5.75;2.70;;;22.00;64.20;;;;;;5381145;26;20000;-75
2024/04/11 12:46:23;;;;;;;4.30;2.28;;;22.00;66.10;;;;;;5376993;26;20004;-71
2024/04/11 12:48:56;;;;;;;6.25;2.50;;;22.10;66.50;;;;;;5381113;26;20015;-75
2024/04/11 12:52:00;;;;;;;9.68;2.28;;;22.20;65.40;;;;;;5382338;26;19996;-75
2024/04/11 13:02:34;;;;;;;5.63;2.75;;;22.10;64.00;;;;;;5193759;27;20003;-74
2024/04/11 13:11:50;;;;;;;10.93;2.45;;;22.30;65.90;;;;;;5208695;27;20071;-75
2024/04/11 13:17:33;;;;;;;5.82;2.33;;;22.30;65.40;;;;;;5196537;27;20036;-75
2024/04/11 13:20:11;;;;;;;13.65;2.65;;;22.40;65.00;;;;;;5326797;26;20004;-74
2024/04/11 13:22:41;;;;;;;8.05;2.30;;;22.40;64.00;;;;;;5381520;26;20073;-75
2024/04/11 13:25:17;;;;;;;8.15;2.30;;;22.40;64.40;;;;;;5381962;26;19996;-75
2024/04/11 13:27:44;;;;;;;7.60;2.17;;;22.40;63.70;;;;;;5381672;26;20004;-74
2024/04/11 13:30:13;;;;;;;16.15;3.05;;;22.50;65.20;;;;;;5381717;26;20363;-75
2024/04/11 13:32:52;;;;;;;4.20;2.20;;;22.50;63.10;;;;;;5381570;26;20011;-75
2024/04/11 13:35:36;;;;;;;8.05;2.20;;;22.50;62.80;;;;;;5381328;26;20011;-75
2024/04/11 13:38:12;;;;;;;4.30;1.90;;;22.50;63.60;;;;;;5381768;26;20016;-73
2024/04/11 13:43:25;;;;;;;17.20;2.15;;;22.50;63.70;;;;;;5380866;26;20011;-70
2024/04/11 13:45:56;;;;;;;5.60;2.17;;;22.50;63.50;;;;;;5350503;26;20024;-71
2024/04/11 13:48:22;;;;;;;7.17;2.27;;;22.40;63.10;;;;;;5350894;26;20448;-70
2024/04/11 13:53:20;;;;;;;10.68;2.53;;;22.50;64.60;;;;;;5379527;26;20004;-69
2024/04/11 13:55:53;;;;;;;10.15;2.40;;;22.40;65.00;;;;;;5380146;26;20317;-69
2024/04/11 13:58:21;;;;;;;8.05;2.17;;;22.40;64.50;;;;;;5382209;26;20522;-70
2024/04/11 14:00:50;;;;;;;9.75;2.30;;;22.40;64.20;;;;;;5381154;26;20004;-70
2024/04/11 14:03:23;;;;;;;11.02;2.22;;;22.50;64.50;;;;;;5381370;26;20008;-69
2024/04/11 14:08:39;;;;;;;6.10;2.20;;;22.50;64.50;;;;;;5381314;26;20018;-69
2024/04/11 14:11:09;;;;;;;11.32;2.13;;;22.50;65.50;;;;;;5381434;26;20016;-69
2024/04/11 14:13:41;;;;;;;9.25;2.25;;;22.50;66.10;;;;;;5381518;26;20077;-68
2024/04/11 14:16:08;;;;;;;;;;;22.50;65.80;;;;;;5351872;26;20015;-69
2024/04/11 14:18:36;;;;;;;8.48;2.20;;;22.50;65.70;;;;;;5379923;26;20365;-68
2024/04/11 14:23:53;;;;;;;7.30;2.45;;;22.50;66.40;;;;;;5382125;26;20085;-68
2024/04/11 14:29:10;;;;;;;3.97;2.00;;;22.50;67.00;;;;;;5380347;26;20073;-68
2024/04/11 14:55:34;;;;;;;4.35;2.28;;;22.50;63.70;;;;;;5078625;28;20030;-69
2024/04/11 14:58:01;;;;;;;8.10;2.00;;;22.50;63.10;;;;;;5105336;27;20019;-69
2024/04/11 15:00:46;;;;;;;9.32;2.13;;;22.50;63.50;;;;;;5270582;27;20395;-69
2024/04/11 15:03:19;;;;;;;5.25;2.00;;;22.50;64.60;;;;;;5339345;26;20336;-70
2024/04/11 15:05:51;;;;;;;4.97;2.05;;;22.50;64.40;;;;;;5380385;26;20039;-68
2024/04/11 15:08:22;;;;;;;5.20;1.90;;;22.60;64.00;;;;;;5380396;26;20000;-69
2024/04/11 15:11:00;;;;;;;4.25;1.92;;;22.50;63.50;;;;;;5380680;26;20402;-70
2024/04/11 15:13:29;;;;;;;7.72;2.03;;;22.60;63.20;;;;;;5379915;26;20000;-69
2024/04/11 15:16:20;;;;;;;9.68;2.20;;;22.60;62.90;;;;;;5320956;26;20325;-68
2024/04/11 15:18:50;;;;;;;12.43;2.90;;;22.60;62.70;;;;;;5356009;26;20347;-69
2024/04/11 15:21:17;;;;;;;10.65;2.35;;;22.60;63.70;;;;;;5380182;26;20475;-68
2024/04/11 15:23:44;;;;;;;8.77;2.17;;;22.60;63.40;;;;;;5379806;26;20032;-70
2024/04/11 15:26:13;;;;;;;10.88;2.67;;;22.60;63.60;;;;;;5380364;26;19996;-69
2024/04/11 15:28:44;;;;;;;10.30;2.47;;;22.60;63.50;;;;;;5379877;26;20436;-69
2024/04/11 15:31:29;;;;;;;7.95;2.28;;;22.60;63.30;;;;;;5380254;26;20448;-68
2024/04/11 15:34:07;;;;;;;9.10;1.98;;;22.60;63.70;;;;;;5378269;26;20482;-69
2024/04/11 15:36:40;;;;;;;18.65;2.78;;;22.70;62.50;;;;;;5380016;26;20004;-68
2024/04/11 15:39:16;;;;;;;9.65;2.38;;;22.70;63.10;;;;;;5380701;26;20000;-69
2024/04/11 15:41:50;;;;;;;4.97;2.17;;;22.70;63.50;;;;;;5379757;26;20004;-72
2024/04/11 15:44:19;;;;;;;5.75;2.17;;;22.70;63.40;;;;;;5379594;26;20011;-70
2024/04/11 15:46:49;;;;;;;6.05;2.25;;;22.70;62.80;;;;;;5380165;26;20001;-69
2024/04/11 15:49:18;;;;;;;13.88;2.28;;;22.70;62.40;;;;;;5379473;26;20010;-75
2024/04/11 15:51:50;;;;;;;6.85;2.30;;;22.60;62.60;;;;;;5379252;26;20016;-75
2024/04/11 15:54:37;;;;;;;8.88;2.20;;;22.60;63.00;;;;;;5378875;26;20033;-74
2024/04/11 15:57:09;;;;;;;7.75;2.15;;;22.60;63.10;;;;;;5380066;26;20041;-75
2024/04/11 15:59:38;;;;;;;6.82;2.20;;;22.60;62.40;;;;;;5380936;26;20029;-69
2024/04/11 16:02:08;;;;;;;3.30;1.80;;;22.60;62.80;;;;;;5381024;26;20030;-69
2024/04/11 16:04:40;;;;;;;9.57;2.05;;;22.60;63.10;;;;;;5384014;26;20410;-69
2024/04/11 16:07:12;;;;;;;4.45;2.03;;;22.50;62.90;;;;;;5383938;26;20012;-69
2024/04/11 16:09:46;;;;;;;8.77;2.30;;;22.50;63.40;;;;;;5383840;26;20032;-69
2024/04/11 16:26:39;;;;;;;6.32;2.00;;;22.40;63.40;;;;;;5081015;28;20067;-69
2024/04/11 16:29:57;;;;;;;;;;;;;;;;;;;;;
2024/04/11 16:36:35;;;;;;;10.60;2.70;;;22.40;63.90;;;;;;5111819;28;20495;-69